Rina Amoretti — IBRR — position and weather

sailwx.info

Track history (hours):
 
Tides and Currents Weather Stations Pressure Air Temp Water Temp Dewpoint Dewpoint Depression Visibility Wind Speed Wind Dir Waves Ship Positions

Rina Amoretti

Last reported at 2016-Feb-11 04:26 UTC. Time now 2016-Feb-13 10:59 UTC.
Position N 37°33' E 015°24'.

Length 120 m; draft 7 m.

Type: Tanker. MMSI: 247197000.

Date/timePositionNaut miles runAvg speedWind from/ knotsBaromVisibWave heightAir tempDewpointWater temp
2016-Feb-11 04:26N 37°33' E 015°24'1214.0
2016-Feb-11 03:33N 37°45' E 015°27'1414.1
2016-Feb-11 02:33N 37°58' E 015°32'1514.7
2016-Feb-11 01:33N 38°12' E 015°36'1313.0
2016-Feb-11 00:33N 38°25' E 015°39'1414.4
2016-Feb-10 23:33N 38°39' E 015°35'1413.6
2016-Feb-10 22:33N 38°53' E 015°31'1313.4
2016-Feb-10 21:33N 39°04' E 015°23'6613.2
2016-Feb-10 16:33N 40°02' E 014°41'1313.2
2016-Feb-10 15:33N 40°11' E 014°29'40 3.0
2016-Feb-10 02:20N 40°50' E 014°17'0 0.0
2016-Feb-09 14:19N 40°50' E 014°17'2 2.6
2016-Feb-09 13:33N 40°48' E 014°18'11213.3
2016-Feb-09 05:05N 39°04' E 015°13'914.4
2016-Feb-09 04:27N 38°56' E 015°19'1314.6
2016-Feb-09 03:33N 38°45' E 015°26'1514.6
2016-Feb-09 02:33N 38°31' E 015°35'1414.6
2016-Feb-09 01:33N 38°18' E 015°42'1313.0
2016-Feb-09 00:33N 38°06' E 015°36'1313.3
2016-Feb-08 23:33N 37°54' E 015°31'1413.5
2016-Feb-08 22:33N 37°40' E 015°27'1514.6
2016-Feb-08 21:30N 37°26' E 015°22'5 0.1
2016-Feb-07 11:22N 37°21' E 015°20'1214.4
2016-Feb-07 10:31N 37°33' E 015°25'1414.1
2016-Feb-07 09:33N 37°46' E 015°28'1414.4
2016-Feb-07 08:33N 38°00' E 015°32'1514.5
2016-Feb-07 07:33N 38°14' E 015°37'8 7.7
2016-Feb-07 06:33N 38°19' E 015°30'1414.4
2016-Feb-07 05:34N 38°18' E 015°12'1414.4
2016-Feb-07 04:33N 38°16' E 014°53'1414.3
2016-Feb-07 03:34N 38°15' E 014°35'1514.5
2016-Feb-07 02:33N 38°13' E 014°17'1414.0
2016-Feb-07 01:33N 38°12' E 013°59'1414.0
2016-Feb-07 00:33N 38°10' E 013°41'1212.5
2016-Feb-06 23:33N 38°06' E 013°26'0 0.2
2016-Feb-06 22:32N 38°06' E 013°26'0 0.0
2016-Feb-06 21:32N 38°06' E 013°26'0 0.0
2016-Feb-06 20:32N 38°06' E 013°26'0 0.0
2016-Feb-06 19:32N 38°06' E 013°26'0 0.0
2016-Feb-06 18:32N 38°06' E 013°26'0 0.0
2016-Feb-06 17:32N 38°06' E 013°26'0 0.0
2016-Feb-06 16:32N 38°06' E 013°26'0 0.0
2016-Feb-06 15:32N 38°06' E 013°26'0 0.0
2016-Feb-06 14:32N 38°06' E 013°26'0 0.0
2016-Feb-06 13:32N 38°06' E 013°26'0 0.0
2016-Feb-06 12:32N 38°06' E 013°26'0 0.0
2016-Feb-06 11:32N 38°06' E 013°26'0 0.0
2016-Feb-06 10:32N 38°06' E 013°26'0 0.0
2016-Feb-06 09:32N 38°06' E 013°26'0 0.0
2016-Feb-06 08:32N 38°06' E 013°26'0 0.0
2016-Feb-06 07:32N 38°06' E 013°26'1 1.0
2016-Feb-06 06:31N 38°07' E 013°26'0 0.1
2016-Feb-06 05:31N 38°07' E 013°26'0 0.0
2016-Feb-06 04:31N 38°07' E 013°26'0 0.0
2016-Feb-06 03:31N 38°07' E 013°26'0 0.0
2016-Feb-06 02:31N 38°07' E 013°26'0 0.0
2016-Feb-06 01:31N 38°07' E 013°26'0 0.1
2016-Feb-06 00:31N 38°07' E 013°26'0 0.0
2016-Feb-05 23:31N 38°07' E 013°26'0 0.0
2016-Feb-05 22:31N 38°07' E 013°26'0 0.0
2016-Feb-05 21:31N 38°07' E 013°26'0 0.0
2016-Feb-05 20:31N 38°07' E 013°26'0 0.0
2016-Feb-05 19:31N 38°07' E 013°26'0 0.0
2016-Feb-05 18:31N 38°07' E 013°26'0 0.0
2016-Feb-05 17:28N 38°07' E 013°26'0 0.0
2016-Feb-05 16:31N 38°07' E 013°26'0 0.0
2016-Feb-05 15:31N 38°07' E 013°26'0 0.0
2016-Feb-05 14:31N 38°07' E 013°26'0 0.0
2016-Feb-05 13:31N 38°07' E 013°26'0 0.0
2016-Feb-05 12:31N 38°07' E 013°26'0 0.0
2016-Feb-05 11:31N 38°07' E 013°26'0 0.0
2016-Feb-05 10:31N 38°07' E 013°26'0 0.0
2016-Feb-05 09:31N 38°07' E 013°26'0 0.0
2016-Feb-05 08:31N 38°07' E 013°26'0 0.0
2016-Feb-05 07:31N 38°07' E 013°26'0 0.0
2016-Feb-05 06:31N 38°07' E 013°26'0 0.0
2016-Feb-05 05:31N 38°07' E 013°26'0 0.0
2016-Feb-05 04:31N 38°07' E 013°26'0 0.0
2016-Feb-05 03:34N 38°07' E 013°26'0 0.0
2016-Feb-05 02:34N 38°07' E 013°26'0 0.0
2016-Feb-05 01:33N 38°07' E 013°26'0 0.0
2016-Feb-05 00:33N 38°07' E 013°26'0 0.0
2016-Feb-04 23:33N 38°07' E 013°26'0 0.0
2016-Feb-04 22:33N 38°07' E 013°26'0 0.0
2016-Feb-04 21:33N 38°07' E 013°26'0 0.0
2016-Feb-04 20:33N 38°07' E 013°26'0 0.0
2016-Feb-04 19:33N 38°07' E 013°26'0 0.0
2016-Feb-04 18:33N 38°07' E 013°26'0 0.0
2016-Feb-04 17:33N 38°07' E 013°26'0 0.0
2016-Feb-04 16:33N 38°07' E 013°26'0 0.0
2016-Feb-04 15:33N 38°07' E 013°26'0 0.0
2016-Feb-04 14:33N 38°07' E 013°26'0 0.0
2016-Feb-04 13:33N 38°07' E 013°26'0 0.0
2016-Feb-04 12:33N 38°07' E 013°26'0 0.0
2016-Feb-04 11:33N 38°07' E 013°26'0 0.1
2016-Feb-04 10:33N 38°07' E 013°26'0 0.0
2016-Feb-04 09:33N 38°07' E 013°26'0 0.0
2016-Feb-04 08:33N 38°07' E 013°26'0 0.0
2016-Feb-04 07:33N 38°07' E 013°26'0 0.0
2016-Feb-04 06:33N 38°07' E 013°26'0 0.0
2016-Feb-04 05:33N 38°07' E 013°26'0 0.0
2016-Feb-04 04:33N 38°07' E 013°26'0 0.0
2016-Feb-04 03:33N 38°07' E 013°26'0 0.0
2016-Feb-04 02:33N 38°07' E 013°26'2 2.1
2016-Feb-04 01:33N 38°08' E 013°29'1313.1
2016-Feb-04 00:33N 38°11' E 013°45'1413.8
2016-Feb-03 23:33N 38°12' E 014°02'7512.4
2016-Feb-03 17:32N 38°13' E 015°37'1413.8
2016-Feb-03 16:33N 38°00' E 015°34'1514.1
2016-Feb-03 15:29N 37°45' E 015°30'13 0.3
2016-Feb-01 22:22N 37°34' E 015°24'1614.6
2016-Feb-01 21:15N 37°50' E 015°29'1114.4
2016-Feb-01 20:30N 38°00' E 015°32'1515.3
2016-Feb-01 19:33N 38°14' E 015°36'2613.1
2016-Feb-01 17:34N 38°40' E 015°29'  
Track history (hours):
 
Tides and Currents Weather Stations Pressure Air Temp Water Temp Dewpoint Dewpoint Depression Visibility Wind Speed Wind Dir Waves Ship Positions

Rina Amoretti

Last reported at 2016-Feb-11 04:26 UTC. Time now 2016-Feb-13 10:59 UTC.
Position N 37°33' E 015°24'.

Length 120 m; draft 7 m.

Type: Tanker. MMSI: 247197000.

Date/timePositionNaut miles runAvg speedWind from/ knotsBaromVisibWave heightAir tempDewpointWater temp
2016-Feb-11 04:26N 37°33' E 015°24'1214.0
2016-Feb-11 03:33N 37°45' E 015°27'1414.1
2016-Feb-11 02:33N 37°58' E 015°32'1514.7
2016-Feb-11 01:33N 38°12' E 015°36'1313.0
2016-Feb-11 00:33N 38°25' E 015°39'1414.4
2016-Feb-10 23:33N 38°39' E 015°35'1413.6
2016-Feb-10 22:33N 38°53' E 015°31'1313.4
2016-Feb-10 21:33N 39°04' E 015°23'6613.2
2016-Feb-10 16:33N 40°02' E 014°41'1313.2
2016-Feb-10 15:33N 40°11' E 014°29'40 3.0
2016-Feb-10 02:20N 40°50' E 014°17'0 0.0
2016-Feb-09 14:19N 40°50' E 014°17'2 2.6
2016-Feb-09 13:33N 40°48' E 014°18'11213.3
2016-Feb-09 05:05N 39°04' E 015°13'914.4
2016-Feb-09 04:27N 38°56' E 015°19'1314.6
2016-Feb-09 03:33N 38°45' E 015°26'1514.6
2016-Feb-09 02:33N 38°31' E 015°35'1414.6
2016-Feb-09 01:33N 38°18' E 015°42'1313.0
2016-Feb-09 00:33N 38°06' E 015°36'1313.3
2016-Feb-08 23:33N 37°54' E 015°31'1413.5
2016-Feb-08 22:33N 37°40' E 015°27'1514.6
2016-Feb-08 21:30N 37°26' E 015°22'5 0.1
2016-Feb-07 11:22N 37°21' E 015°20'1214.4
2016-Feb-07 10:31N 37°33' E 015°25'1414.1
2016-Feb-07 09:33N 37°46' E 015°28'1414.4
2016-Feb-07 08:33N 38°00' E 015°32'1514.5
2016-Feb-07 07:33N 38°14' E 015°37'8 7.7
2016-Feb-07 06:33N 38°19' E 015°30'1414.4
2016-Feb-07 05:34N 38°18' E 015°12'1414.4
2016-Feb-07 04:33N 38°16' E 014°53'1414.3
2016-Feb-07 03:34N 38°15' E 014°35'1514.5
2016-Feb-07 02:33N 38°13' E 014°17'1414.0
2016-Feb-07 01:33N 38°12' E 013°59'1414.0
2016-Feb-07 00:33N 38°10' E 013°41'1212.5
2016-Feb-06 23:33N 38°06' E 013°26'0 0.2
2016-Feb-06 22:32N 38°06' E 013°26'0 0.0
2016-Feb-06 21:32N 38°06' E 013°26'0 0.0
2016-Feb-06 20:32N 38°06' E 013°26'0 0.0
2016-Feb-06 19:32N 38°06' E 013°26'0 0.0
2016-Feb-06 18:32N 38°06' E 013°26'0 0.0
2016-Feb-06 17:32N 38°06' E 013°26'0 0.0
2016-Feb-06 16:32N 38°06' E 013°26'0 0.0
2016-Feb-06 15:32N 38°06' E 013°26'0 0.0
2016-Feb-06 14:32N 38°06' E 013°26'0 0.0
2016-Feb-06 13:32N 38°06' E 013°26'0 0.0
2016-Feb-06 12:32N 38°06' E 013°26'0 0.0
2016-Feb-06 11:32N 38°06' E 013°26'0 0.0
2016-Feb-06 10:32N 38°06' E 013°26'0 0.0
2016-Feb-06 09:32N 38°06' E 013°26'0 0.0
2016-Feb-06 08:32N 38°06' E 013°26'0 0.0
2016-Feb-06 07:32N 38°06' E 013°26'1 1.0
2016-Feb-06 06:31N 38°07' E 013°26'0 0.1
2016-Feb-06 05:31N 38°07' E 013°26'0 0.0
2016-Feb-06 04:31N 38°07' E 013°26'0 0.0
2016-Feb-06 03:31N 38°07' E 013°26'0 0.0
2016-Feb-06 02:31N 38°07' E 013°26'0 0.0
2016-Feb-06 01:31N 38°07' E 013°26'0 0.1
2016-Feb-06 00:31N 38°07' E 013°26'0 0.0
2016-Feb-05 23:31N 38°07' E 013°26'0 0.0
2016-Feb-05 22:31N 38°07' E 013°26'0 0.0
2016-Feb-05 21:31N 38°07' E 013°26'0 0.0
2016-Feb-05 20:31N 38°07' E 013°26'0 0.0
2016-Feb-05 19:31N 38°07' E 013°26'0 0.0
2016-Feb-05 18:31N 38°07' E 013°26'0 0.0
2016-Feb-05 17:28N 38°07' E 013°26'0 0.0
2016-Feb-05 16:31N 38°07' E 013°26'0 0.0
2016-Feb-05 15:31N 38°07' E 013°26'0 0.0
2016-Feb-05 14:31N 38°07' E 013°26'0 0.0
2016-Feb-05 13:31N 38°07' E 013°26'0 0.0
2016-Feb-05 12:31N 38°07' E 013°26'0 0.0
2016-Feb-05 11:31N 38°07' E 013°26'0 0.0
2016-Feb-05 10:31N 38°07' E 013°26'0 0.0
2016-Feb-05 09:31N 38°07' E 013°26'0 0.0
2016-Feb-05 08:31N 38°07' E 013°26'0 0.0
2016-Feb-05 07:31N 38°07' E 013°26'0 0.0
2016-Feb-05 06:31N 38°07' E 013°26'0 0.0
2016-Feb-05 05:31N 38°07' E 013°26'0 0.0
2016-Feb-05 04:31N 38°07' E 013°26'0 0.0
2016-Feb-05 03:34N 38°07' E 013°26'0 0.0
2016-Feb-05 02:34N 38°07' E 013°26'0 0.0
2016-Feb-05 01:33N 38°07' E 013°26'0 0.0
2016-Feb-05 00:33N 38°07' E 013°26'0 0.0
2016-Feb-04 23:33N 38°07' E 013°26'0 0.0
2016-Feb-04 22:33N 38°07' E 013°26'0 0.0
2016-Feb-04 21:33N 38°07' E 013°26'0 0.0
2016-Feb-04 20:33N 38°07' E 013°26'0 0.0
2016-Feb-04 19:33N 38°07' E 013°26'0 0.0
2016-Feb-04 18:33N 38°07' E 013°26'0 0.0
2016-Feb-04 17:33N 38°07' E 013°26'0 0.0
2016-Feb-04 16:33N 38°07' E 013°26'0 0.0
2016-Feb-04 15:33N 38°07' E 013°26'0 0.0
2016-Feb-04 14:33N 38°07' E 013°26'0 0.0
2016-Feb-04 13:33N 38°07' E 013°26'0 0.0
2016-Feb-04 12:33N 38°07' E 013°26'0 0.0
2016-Feb-04 11:33N 38°07' E 013°26'0 0.1
2016-Feb-04 10:33N 38°07' E 013°26'0 0.0
2016-Feb-04 09:33N 38°07' E 013°26'0 0.0
2016-Feb-04 08:33N 38°07' E 013°26'0 0.0
2016-Feb-04 07:33N 38°07' E 013°26'0 0.0
2016-Feb-04 06:33N 38°07' E 013°26'0 0.0
2016-Feb-04 05:33N 38°07' E 013°26'0 0.0
2016-Feb-04 04:33N 38°07' E 013°26'0 0.0
2016-Feb-04 03:33N 38°07' E 013°26'0 0.0
2016-Feb-04 02:33N 38°07' E 013°26'2 2.1
2016-Feb-04 01:33N 38°08' E 013°29'1313.1
2016-Feb-04 00:33N 38°11' E 013°45'1413.8
2016-Feb-03 23:33N 38°12' E 014°02'7512.4
2016-Feb-03 17:32N 38°13' E 015°37'1413.8
2016-Feb-03 16:33N 38°00' E 015°34'1514.1
2016-Feb-03 15:29N 37°45' E 015°30'13 0.3
2016-Feb-01 22:22N 37°34' E 015°24'1614.6
2016-Feb-01 21:15N 37°50' E 015°29'1114.4
2016-Feb-01 20:30N 38°00' E 015°32'1515.3
2016-Feb-01 19:33N 38°14' E 015°36'2613.1
2016-Feb-01 17:34N 38°40' E 015°29'  

Dump ship's entire track history